Time;durP1;ratioP1;P1;durP2;ratioP2;P2;SDS_P1;SDS_P2;PMS_P1;PMS_P2;Temp;Humidity;BMP_temperature;BMP_pressure;BME280_temperature;BME280_humidity;BME280_pressure;Samples;Min_cycle;Max_cycle;Signal;HPM_P1;HPM_P2
2021/12/01 00:00:33;;;;;;;5.35;2.00;;;;;;;;;;5007930;28;20042;-54
2021/12/01 00:02:59;;;;;;;7.43;1.85;;;;;;;;;;5008271;28;20047;-55
2021/12/01 00:05:27;;;;;;;9.77;2.10;;;;;;;;;;5006719;28;20069;-56
2021/12/01 00:07:53;;;;;;;9.68;1.98;;;;;;;;;;5008418;28;20034;-57
2021/12/01 00:10:20;;;;;;;5.75;1.88;;;;;;;;;;5007668;28;20048;-57
2021/12/01 00:12:47;;;;;;;6.40;1.77;;;;;;;;;;5006304;28;20078;-56
2021/12/01 00:15:13;;;;;;;6.72;2.10;;;;;;;;;;5009107;28;20049;-56
2021/12/01 00:17:39;;;;;;;11.20;2.22;;;;;;;;;;4989747;28;20046;-55
2021/12/01 00:20:09;;;;;;;6.82;1.98;;;;;;;;;;5006208;28;20034;-55
2021/12/01 00:22:35;;;;;;;11.32;2.15;;;;;;;;;;5006024;28;20038;-55
2021/12/01 00:25:02;;;;;;;8.40;1.98;;;;;;;;;;5007298;28;20049;-56
2021/12/01 00:27:27;;;;;;;8.13;2.10;;;;;;;;;;5007354;28;21422;-53
2021/12/01 00:29:54;;;;;;;9.25;1.88;;;;;;;;;;5009687;28;20034;-51
2021/12/01 00:32:20;;;;;;;7.13;1.95;;;;;;;;;;5006105;28;20391;-55
2021/12/01 00:34:46;;;;;;;7.30;1.98;;;;;;;;;;5007859;28;20045;-55
2021/12/01 00:37:12;;;;;;;4.70;1.40;;;;;;;;;;5007256;28;20029;-55
2021/12/01 00:39:38;;;;;;;5.10;1.30;;;;;;;;;;5006277;28;20099;-55
2021/12/01 00:42:04;;;;;;;6.53;1.50;;;;;;;;;;5007644;28;20099;-56
2021/12/01 00:44:31;;;;;;;4.75;1.45;;;;;;;;;;5006822;28;20033;-54
2021/12/01 00:49:30;;;;;;;6.32;2.10;;;;;;;;;;5005403;28;20092;-55
2021/12/01 00:51:55;;;;;;;6.15;2.00;;;;;;;;;;5006921;28;20048;-56
2021/12/01 00:54:22;;;;;;;7.80;1.98;;;;;;;;;;5008411;28;20033;-56
2021/12/01 00:56:49;;;;;;;6.35;1.60;;;;;;;;;;5009099;28;20048;-56
2021/12/01 00:59:15;;;;;;;8.15;1.77;;;;;;;;;;5008804;28;20063;-53
2021/12/01 01:01:42;;;;;;;8.63;1.67;;;;;;;;;;5003131;28;20132;-55
2021/12/01 01:04:08;;;;;;;9.32;1.55;;;;;;;;;;5006576;28;20096;-55
2021/12/01 01:06:33;;;;;;;11.50;1.83;;;;;;;;;;5006220;28;20041;-56
2021/12/01 01:09:01;;;;;;;8.68;2.17;;;;;;;;;;5008411;28;20084;-56
2021/12/01 01:16:57;;;;;;;4.70;1.60;;;;;;;;;;5007024;28;20057;-57
2021/12/01 01:19:23;;;;;;;10.43;1.63;;;;;;;;;;5007764;28;20041;-57
2021/12/01 01:21:51;;;;;;;8.55;1.42;;;;;;;;;;5005723;28;20549;-56
2021/12/01 01:24:17;;;;;;;8.43;1.40;;;;;;;;;;5007191;28;20038;-56
2021/12/01 01:26:43;;;;;;;4.88;1.45;;;;;;;;;;4986107;28;20934;-57
2021/12/01 01:29:09;;;;;;;5.35;1.13;;;;;;;;;;5005892;28;20057;-56
2021/12/01 01:31:35;;;;;;;6.15;1.30;;;;;;;;;;5004755;28;20053;-53
2021/12/01 01:34:02;;;;;;;6.63;1.10;;;;;;;;;;5005758;28;20065;-55
2021/12/01 01:36:28;;;;;;;4.15;1.20;;;;;;;;;;5007576;28;20038;-54
2021/12/01 01:38:55;;;;;;;2.83;1.00;;;;;;;;;;5007462;28;20119;-56
2021/12/01 01:41:21;;;;;;;10.50;1.20;;;;;;;;;;5004781;28;20050;-52
2021/12/01 01:43:48;;;;;;;3.67;1.00;;;;;;;;;;5007170;28;20042;-56
2021/12/01 01:46:15;;;;;;;5.53;1.08;;;;;;;;;;5007057;28;20037;-54
2021/12/01 01:48:52;;;;;;;5.88;1.20;;;;;;;;;;5005625;28;20033;-55
2021/12/01 01:51:19;;;;;;;2.15;0.75;;;;;;;;;;5006083;28;20076;-56
2021/12/01 01:53:45;;;;;;;3.88;1.23;;;;;;;;;;5006579;28;20487;-59
2021/12/01 01:56:11;;;;;;;3.60;1.50;;;;;;;;;;5007334;28;20538;-54
2021/12/01 01:58:37;;;;;;;4.22;1.52;;;;;;;;;;5004548;28;20087;-56
2021/12/01 02:01:08;;;;;;;4.40;1.15;;;;;;;;;;5005389;28;20341;-58
2021/12/01 02:03:37;;;;;;;3.85;1.25;;;;;;;;;;5005414;28;20084;-57
2021/12/01 02:06:03;;;;;;;5.10;1.13;;;;;;;;;;5006747;28;20336;-56
2021/12/01 02:08:31;;;;;;;3.38;1.10;;;;;;;;;;5006061;28;20034;-55
2021/12/01 02:11:01;;;;;;;7.03;1.38;;;;;;;;;;5005144;28;20049;-56
2021/12/01 02:13:27;;;;;;;7.60;1.70;;;;;;;;;;5008355;28;20037;-56
2021/12/01 02:15:54;;;;;;;8.02;1.65;;;;;;;;;;5007455;28;20068;-57
2021/12/01 02:18:20;;;;;;;6.10;1.50;;;;;;;;;;5005612;28;20029;-57
2021/12/01 02:21:04;;;;;;;5.30;1.23;;;;;;;;;;5004674;28;20725;-57
2021/12/01 02:23:31;;;;;;;9.70;1.30;;;;;;;;;;5007153;28;20041;-56
2021/12/01 02:25:57;;;;;;;6.18;1.58;;;;;;;;;;5006095;28;20052;-57
2021/12/01 02:28:23;;;;;;;7.18;1.85;;;;;;;;;;4972247;28;20076;-56
2021/12/01 02:30:51;;;;;;;5.38;1.48;;;;;;;;;;4986662;28;20607;-55
2021/12/01 02:33:17;;;;;;;4.75;1.38;;;;;;;;;;4988758;28;20038;-56
2021/12/01 02:35:43;;;;;;;10.82;1.63;;;;;;;;;;5003356;28;20676;-56
2021/12/01 02:38:09;;;;;;;7.70;1.40;;;;;;;;;;4992425;28;20029;-52
2021/12/01 02:40:35;;;;;;;4.57;1.58;;;;;;;;;;4990604;28;20590;-57
2021/12/01 02:43:01;;;;;;;11.85;1.45;;;;;;;;;;4992221;28;20034;-57
2021/12/01 02:45:27;;;;;;;8.85;2.03;;;;;;;;;;4990760;28;20074;-56
2021/12/01 02:47:53;;;;;;;5.57;1.33;;;;;;;;;;4987622;28;22009;-54
2021/12/01 02:50:19;;;;;;;3.60;1.30;;;;;;;;;;4990380;28;20041;-54
2021/12/01 02:52:46;;;;;;;3.88;1.23;;;;;;;;;;4990881;28;20042;-56
2021/12/01 02:55:15;;;;;;;4.20;1.30;;;;;;;;;;4992146;28;20134;-55
2021/12/01 02:57:46;;;;;;;3.33;1.02;;;;;;;;;;4991434;28;20041;-53
2021/12/01 03:00:12;;;;;;;4.55;1.30;;;;;;;;;;4992219;28;20046;-54
2021/12/01 03:02:39;;;;;;;5.20;1.00;;;;;;;;;;4991467;28;20142;-54
2021/12/01 03:05:05;;;;;;;4.60;1.15;;;;;;;;;;4992585;28;20499;-54
2021/12/01 03:07:32;;;;;;;4.07;1.02;;;;;;;;;;4994493;28;20038;-53
2021/12/01 03:09:58;;;;;;;3.47;1.00;;;;;;;;;;4995824;28;20034;-56
2021/12/01 03:12:27;;;;;;;3.42;1.10;;;;;;;;;;4991730;28;20255;-53
2021/12/01 03:14:53;;;;;;;4.53;1.20;;;;;;;;;;4992045;28;20038;-56
2021/12/01 03:17:19;;;;;;;3.60;1.00;;;;;;;;;;4992448;28;21976;-54
2021/12/01 03:19:45;;;;;;;4.97;1.05;;;;;;;;;;4992775;28;20156;-54
2021/12/01 03:22:14;;;;;;;4.20;1.40;;;;;;;;;;4992051;28;20050;-56
2021/12/01 03:24:40;;;;;;;4.43;1.25;;;;;;;;;;4992749;28;20050;-56
2021/12/01 03:27:06;;;;;;;3.58;1.48;;;;;;;;;;4992791;28;20056;-56
2021/12/01 03:29:32;;;;;;;5.93;1.67;;;;;;;;;;5009560;28;20715;-56
2021/12/01 03:31:58;;;;;;;6.75;1.50;;;;;;;;;;5011219;28;20194;-56
2021/12/01 03:34:24;;;;;;;9.52;2.30;;;;;;;;;;5011171;28;20066;-53
2021/12/01 03:36:50;;;;;;;9.38;2.35;;;;;;;;;;5009571;28;20750;-51
2021/12/01 03:39:15;;;;;;;8.20;2.17;;;;;;;;;;5009653;28;20546;-55
2021/12/01 03:41:41;;;;;;;7.47;1.85;;;;;;;;;;5009727;28;20042;-54
2021/12/01 03:44:08;;;;;;;5.57;1.60;;;;;;;;;;5009217;28;20046;-56
2021/12/01 03:46:34;;;;;;;10.52;2.20;;;;;;;;;;5007907;28;20033;-57
2021/12/01 03:49:00;;;;;;;9.48;2.30;;;;;;;;;;5011434;28;20045;-55
2021/12/01 03:51:26;;;;;;;4.90;2.00;;;;;;;;;;5007016;28;20041;-56
2021/12/01 03:53:52;;;;;;;12.63;2.53;;;;;;;;;;5008683;28;20053;-56
2021/12/01 03:56:20;;;;;;;10.38;3.67;;;;;;;;;;5009335;28;20128;-54
2021/12/01 03:58:46;;;;;;;12.50;2.25;;;;;;;;;;5009184;28;20049;-55
2021/12/01 04:01:12;;;;;;;9.52;2.58;;;;;;;;;;5009223;28;20426;-56
2021/12/01 04:03:38;;;;;;;6.60;2.03;;;;;;;;;;5008928;28;20045;-54
2021/12/01 04:06:05;;;;;;;10.45;2.25;;;;;;;;;;5009182;28;20046;-54
2021/12/01 04:08:32;;;;;;;9.90;2.22;;;;;;;;;;5007238;28;20181;-56
2021/12/01 04:10:58;;;;;;;6.65;2.05;;;;;;;;;;5006956;28;20075;-56
2021/12/01 04:13:24;;;;;;;8.85;2.40;;;;;;;;;;4989323;28;20044;-54
2021/12/01 04:15:50;;;;;;;6.15;1.95;;;;;;;;;;4990189;28;20063;-53
2021/12/01 04:18:15;;;;;;;8.98;2.33;;;;;;;;;;5010250;28;20156;-56
2021/12/01 04:20:41;;;;;;;9.40;2.10;;;;;;;;;;5008120;28;20505;-57
2021/12/01 04:23:07;;;;;;;5.72;2.00;;;;;;;;;;5007910;28;20062;-58
2021/12/01 04:25:33;;;;;;;9.20;2.40;;;;;;;;;;5007323;28;20040;-56
2021/12/01 04:28:00;;;;;;;9.05;2.15;;;;;;;;;;5008189;28;20046;-57
2021/12/01 04:30:26;;;;;;;5.07;2.10;;;;;;;;;;5007121;28;20104;-56
2021/12/01 04:32:52;;;;;;;3.97;1.35;;;;;;;;;;5008836;28;20593;-56
2021/12/01 04:35:19;;;;;;;7.90;2.03;;;;;;;;;;5006433;28;20042;-56
2021/12/01 04:37:46;;;;;;;6.10;1.90;;;;;;;;;;5008040;28;20045;-56
2021/12/01 04:40:13;;;;;;;8.43;2.28;;;;;;;;;;5007083;28;20116;-56
2021/12/01 04:42:39;;;;;;;13.82;2.55;;;;;;;;;;5007635;28;20502;-55
2021/12/01 04:45:08;;;;;;;9.82;2.15;;;;;;;;;;5008918;28;20045;-57
2021/12/01 04:47:41;;;;;;;8.15;1.80;;;;;;;;;;5008045;28;20049;-54
2021/12/01 04:50:07;;;;;;;7.87;1.90;;;;;;;;;;5007650;28;20037;-54
2021/12/01 04:52:33;;;;;;;7.30;2.22;;;;;;;;;;5004454;28;20303;-53
2021/12/01 04:54:58;;;;;;;5.18;2.15;;;;;;;;;;5007651;28;20056;-54
2021/12/01 04:57:24;;;;;;;5.90;1.55;;;;;;;;;;5005107;28;20537;-56
2021/12/01 04:59:50;;;;;;;4.28;1.60;;;;;;;;;;5004649;28;20511;-57
2021/12/01 05:02:16;;;;;;;6.68;1.48;;;;;;;;;;5005814;28;20528;-54
2021/12/01 05:04:42;;;;;;;8.18;1.90;;;;;;;;;;5005751;28;20148;-55
2021/12/01 05:07:10;;;;;;;6.22;1.38;;;;;;;;;;5007712;28;20057;-55
2021/12/01 05:09:37;;;;;;;3.28;1.30;;;;;;;;;;5007133;28;20083;-55
2021/12/01 05:12:03;;;;;;;3.40;1.10;;;;;;;;;;5006697;28;20096;-54
2021/12/01 05:14:29;;;;;;;5.57;0.98;;;;;;;;;;5006215;28;20033;-55
2021/12/01 05:16:55;;;;;;;4.93;1.55;;;;;;;;;;5007475;28;20501;-55
2021/12/01 05:19:21;;;;;;;3.65;1.23;;;;;;;;;;5005874;28;20057;-55
2021/12/01 05:21:47;;;;;;;4.38;1.17;;;;;;;;;;5005444;28;20402;-54
2021/12/01 05:24:13;;;;;;;2.75;0.88;;;;;;;;;;5007300;28;20113;-56
2021/12/01 05:26:39;;;;;;;7.10;1.20;;;;;;;;;;5006850;28;20041;-56
2021/12/01 05:29:05;;;;;;;3.33;1.00;;;;;;;;;;5007594;28;20058;-53
2021/12/01 05:31:31;;;;;;;3.35;1.10;;;;;;;;;;5006381;28;20064;-57
2021/12/01 05:33:57;;;;;;;3.15;0.90;;;;;;;;;;5005854;28;20029;-54
2021/12/01 05:36:23;;;;;;;5.07;1.30;;;;;;;;;;5006926;28;20475;-57
2021/12/01 05:38:49;;;;;;;3.78;1.20;;;;;;;;;;5006690;28;20069;-57
2021/12/01 05:41:15;;;;;;;3.35;1.10;;;;;;;;;;5006506;28;20515;-55
2021/12/01 05:43:41;;;;;;;3.60;1.10;;;;;;;;;;5006670;28;20868;-54
2021/12/01 05:46:07;;;;;;;4.70;1.25;;;;;;;;;;5005963;28;20111;-55
2021/12/01 05:48:32;;;;;;;3.90;1.27;;;;;;;;;;5007430;28;20087;-54
2021/12/01 05:50:58;;;;;;;2.97;1.23;;;;;;;;;;5005711;28;20533;-53
2021/12/01 05:53:24;;;;;;;5.60;1.23;;;;;;;;;;5005945;28;20036;-54
2021/12/01 05:55:51;;;;;;;4.55;1.40;;;;;;;;;;5007903;28;20056;-57
2021/12/01 05:58:17;;;;;;;4.05;1.15;;;;;;;;;;5007224;28;20511;-57
2021/12/01 06:00:43;;;;;;;4.68;1.13;;;;;;;;;;5004590;28;20052;-56
2021/12/01 06:03:09;;;;;;;8.10;1.30;;;;;;;;;;5007289;28;20129;-55
2021/12/01 06:05:36;;;;;;;6.82;1.63;;;;;;;;;;5006490;28;20106;-56
2021/12/01 06:08:03;;;;;;;7.35;1.50;;;;;;;;;;4971840;28;20446;-55
2021/12/01 06:10:28;;;;;;;6.85;1.42;;;;;;;;;;5006229;28;20041;-56
2021/12/01 06:12:54;;;;;;;4.78;1.58;;;;;;;;;;5009493;28;20038;-55
2021/12/01 06:15:21;;;;;;;3.33;1.20;;;;;;;;;;5009377;28;20041;-55
2021/12/01 06:17:47;;;;;;;4.57;1.20;;;;;;;;;;5010170;28;20112;-53
2021/12/01 06:20:13;;;;;;;4.28;0.90;;;;;;;;;;5010391;28;20076;-57
2021/12/01 06:22:40;;;;;;;4.05;0.80;;;;;;;;;;5009491;28;20049;-57
2021/12/01 06:25:06;;;;;;;3.58;0.80;;;;;;;;;;4994065;28;20042;-56
2021/12/01 06:27:32;;;;;;;3.38;0.77;;;;;;;;;;5008657;28;20069;-57
2021/12/01 06:29:58;;;;;;;1.88;0.70;;;;;;;;;;4990151;28;20586;-56
2021/12/01 06:32:24;;;;;;;2.05;0.70;;;;;;;;;;5009306;28;20065;-56
2021/12/01 06:34:50;;;;;;;1.85;0.68;;;;;;;;;;5009453;28;20572;-55
2021/12/01 06:37:17;;;;;;;2.40;0.60;;;;;;;;;;5009526;28;20053;-55
2021/12/01 06:39:44;;;;;;;2.30;0.70;;;;;;;;;;5009469;28;20134;-55
2021/12/01 06:42:10;;;;;;;3.78;0.80;;;;;;;;;;5010750;28;20038;-52
2021/12/01 06:44:35;;;;;;;1.60;0.60;;;;;;;;;;5010023;28;20038;-56
2021/12/01 06:47:02;;;;;;;4.72;0.95;;;;;;;;;;5009930;28;20034;-54
2021/12/01 06:49:28;;;;;;;2.03;0.65;;;;;;;;;;5008862;28;20200;-56
2021/12/01 06:51:54;;;;;;;1.55;0.50;;;;;;;;;;5008792;28;20504;-56
2021/12/01 06:54:20;;;;;;;4.25;0.60;;;;;;;;;;5008460;28;20075;-55
2021/12/01 06:56:46;;;;;;;1.73;0.50;;;;;;;;;;5009386;28;20038;-57
2021/12/01 06:59:12;;;;;;;4.63;0.50;;;;;;;;;;5009449;28;20148;-54
2021/12/01 07:01:38;;;;;;;0.68;0.40;;;;;;;;;;5007436;28;20037;-57
2021/12/01 07:04:04;;;;;;;0.85;0.40;;;;;;;;;;5009707;28;20060;-56
2021/12/01 07:06:30;;;;;;;0.73;0.30;;;;;;;;;;5009386;28;20033;-56
2021/12/01 07:08:59;;;;;;;1.70;0.40;;;;;;;;;;5008745;28;20044;-56
2021/12/01 07:11:25;;;;;;;1.05;0.43;;;;;;;;;;5008886;28;20050;-57
2021/12/01 07:13:51;;;;;;;0.30;0.30;;;;;;;;;;5009237;28;20380;-56
2021/12/01 07:16:17;;;;;;;1.48;0.45;;;;;;;;;;5008505;28;20103;-56
2021/12/01 07:18:43;;;;;;;0.68;0.40;;;;;;;;;;4999969;28;20052;-56
2021/12/01 07:21:09;;;;;;;0.43;0.30;;;;;;;;;;5008378;28;20134;-57
2021/12/01 07:23:35;;;;;;;1.00;0.38;;;;;;;;;;5008201;28;20048;-56
2021/12/01 07:26:01;;;;;;;11.13;0.85;;;;;;;;;;5009428;28;20041;-54
2021/12/01 07:28:27;;;;;;;4.25;0.60;;;;;;;;;;4987504;28;20124;-56
2021/12/01 07:30:53;;;;;;;5.57;0.77;;;;;;;;;;4986753;28;20093;-55
2021/12/01 07:33:19;;;;;;;2.20;0.70;;;;;;;;;;4988656;28;20101;-55
2021/12/01 07:35:45;;;;;;;2.65;0.40;;;;;;;;;;4989870;28;20438;-57
2021/12/01 07:38:12;;;;;;;2.20;0.43;;;;;;;;;;4990785;28;20525;-56
2021/12/01 07:40:38;;;;;;;3.40;0.38;;;;;;;;;;4987703;28;20168;-54
2021/12/01 07:43:04;;;;;;;5.35;0.60;;;;;;;;;;4989213;28;20040;-55
2021/12/01 07:45:30;;;;;;;8.02;0.43;;;;;;;;;;4989382;28;20062;-55
2021/12/01 07:47:56;;;;;;;5.88;0.50;;;;;;;;;;4988465;28;20068;-56
2021/12/01 07:50:22;;;;;;;0.70;0.35;;;;;;;;;;4987072;28;20368;-55
2021/12/01 07:52:47;;;;;;;2.17;0.60;;;;;;;;;;4989298;28;20058;-53
2021/12/01 07:55:13;;;;;;;4.40;0.40;;;;;;;;;;4989909;28;20041;-53
2021/12/01 07:57:39;;;;;;;3.38;0.57;;;;;;;;;;4987589;28;21104;-55
2021/12/01 08:00:06;;;;;;;0.82;0.40;;;;;;;;;;4988396;28;20562;-56
2021/12/01 08:02:32;;;;;;;3.78;0.60;;;;;;;;;;4987253;28;20042;-56
2021/12/01 08:04:58;;;;;;;1.95;0.50;;;;;;;;;;4989635;28;20531;-54
2021/12/01 08:07:27;;;;;;;0.95;0.40;;;;;;;;;;4988626;28;20041;-56
2021/12/01 08:09:53;;;;;;;0.82;0.40;;;;;;;;;;4988238;28;20049;-57
2021/12/01 08:12:18;;;;;;;1.05;0.40;;;;;;;;;;4988780;28;20050;-56
2021/12/01 08:14:44;;;;;;;3.40;0.43;;;;;;;;;;4988079;28;20052;-57
2021/12/01 08:17:10;;;;;;;1.08;0.50;;;;;;;;;;4987792;28;20133;-53
2021/12/01 08:19:36;;;;;;;2.22;0.60;;;;;;;;;;4988138;28;20069;-57
2021/12/01 08:22:03;;;;;;;2.63;0.60;;;;;;;;;;4987311;28;20088;-55
2021/12/01 08:24:32;;;;;;;1.42;0.40;;;;;;;;;;4988332;28;20513;-56
2021/12/01 08:26:57;;;;;;;1.40;0.50;;;;;;;;;;4989207;28;20043;-55
2021/12/01 08:29:23;;;;;;;4.60;0.73;;;;;;;;;;5006956;28;20041;-55
2021/12/01 08:31:49;;;;;;;3.47;0.88;;;;;;;;;;5006734;28;20205;-56
2021/12/01 08:34:15;;;;;;;2.47;0.90;;;;;;;;;;4987330;28;20056;-55
2021/12/01 08:36:41;;;;;;;2.47;0.65;;;;;;;;;;5006667;28;20090;-56
2021/12/01 08:39:07;;;;;;;2.50;0.70;;;;;;;;;;5006728;28;20043;-57
2021/12/01 08:41:33;;;;;;;7.60;0.80;;;;;;;;;;5006172;28;20041;-53
2021/12/01 08:43:59;;;;;;;2.92;0.80;;;;;;;;;;5008488;28;20053;-56
2021/12/01 08:46:25;;;;;;;2.55;0.70;;;;;;;;;;5007088;28;20038;-53
2021/12/01 08:48:50;;;;;;;2.80;0.68;;;;;;;;;;5008530;28;20038;-56
2021/12/01 08:51:16;;;;;;;1.88;0.60;;;;;;;;;;5008705;28;20045;-53
2021/12/01 08:53:42;;;;;;;5.43;0.70;;;;;;;;;;5009026;28;20041;-57
2021/12/01 08:56:12;;;;;;;2.33;0.70;;;;;;;;;;5007591;28;20086;-54
2021/12/01 08:58:38;;;;;;;1.58;0.50;;;;;;;;;;5007080;28;20495;-57
2021/12/01 09:01:04;;;;;;;3.45;0.68;;;;;;;;;;5006197;28;20041;-55
2021/12/01 09:03:30;;;;;;;6.45;0.68;;;;;;;;;;5007245;28;20132;-57
2021/12/01 09:05:56;;;;;;;2.15;0.60;;;;;;;;;;5007973;28;20037;-57
2021/12/01 09:08:23;;;;;;;1.58;0.50;;;;;;;;;;5007029;28;20414;-57
2021/12/01 09:10:52;;;;;;;2.40;0.60;;;;;;;;;;5004903;28;20049;-54
2021/12/01 09:13:19;;;;;;;3.75;0.80;;;;;;;;;;5006964;28;20782;-54
2021/12/01 09:15:45;;;;;;;2.17;0.50;;;;;;;;;;5006830;28;20049;-56
2021/12/01 09:18:10;;;;;;;3.95;0.65;;;;;;;;;;5006578;28;20550;-57
2021/12/01 09:20:37;;;;;;;0.73;0.40;;;;;;;;;;5007282;28;20566;-56
2021/12/01 09:23:03;;;;;;;0.30;0.30;;;;;;;;;;5007373;28;20041;-57
2021/12/01 09:25:30;;;;;;;0.25;0.25;;;;;;;;;;5007485;28;20065;-54
2021/12/01 09:27:56;;;;;;;1.13;0.40;;;;;;;;;;5007448;28;20841;-55
2021/12/01 09:30:21;;;;;;;0.65;0.30;;;;;;;;;;5004547;28;20156;-57
2021/12/01 09:32:47;;;;;;;0.30;0.30;;;;;;;;;;5007896;28;20049;-54
2021/12/01 09:35:14;;;;;;;2.85;0.45;;;;;;;;;;5007726;28;20042;-57
2021/12/01 09:37:41;;;;;;;0.63;0.30;;;;;;;;;;5007640;28;20447;-54
2021/12/01 09:40:13;;;;;;;1.50;0.30;;;;;;;;;;5006968;28;20363;-54
2021/12/01 09:42:48;;;;;;;1.15;0.40;;;;;;;;;;5006446;28;20069;-56
2021/12/01 09:45:14;;;;;;;0.35;0.30;;;;;;;;;;5007318;28;20034;-57
2021/12/01 09:47:40;;;;;;;0.30;0.30;;;;;;;;;;5006880;28;20461;-55
2021/12/01 09:50:07;;;;;;;0.57;0.40;;;;;;;;;;5006907;28;20096;-56
2021/12/01 09:52:33;;;;;;;0.30;0.30;;;;;;;;;;5007914;28;20057;-56
2021/12/01 09:54:59;;;;;;;0.25;0.25;;;;;;;;;;5008543;28;20045;-55
2021/12/01 09:57:25;;;;;;;0.38;0.30;;;;;;;;;;5007430;28;20041;-56
2021/12/01 09:59:51;;;;;;;0.52;0.30;;;;;;;;;;5006641;28;20057;-55
2021/12/01 10:02:17;;;;;;;0.35;0.30;;;;;;;;;;5007960;28;20041;-57
2021/12/01 10:04:43;;;;;;;0.60;0.30;;;;;;;;;;5006209;28;20128;-57
2021/12/01 10:07:17;;;;;;;0.63;0.40;;;;;;;;;;5006859;28;20037;-57
2021/12/01 10:09:44;;;;;;;0.20;0.20;;;;;;;;;;5006397;28;20076;-57
2021/12/01 10:12:10;;;;;;;0.30;0.30;;;;;;;;;;4988946;28;20056;-55
2021/12/01 10:14:36;;;;;;;0.32;0.30;;;;;;;;;;5006071;28;20034;-56
2021/12/01 10:17:02;;;;;;;0.35;0.30;;;;;;;;;;5008398;28;20681;-57
2021/12/01 10:19:28;;;;;;;0.60;0.30;;;;;;;;;;5004731;28;20041;-56
2021/12/01 10:21:55;;;;;;;0.77;0.40;;;;;;;;;;5007766;28;20052;-57
2021/12/01 10:24:23;;;;;;;0.30;0.30;;;;;;;;;;5007082;28;20034;-56
2021/12/01 10:26:50;;;;;;;0.25;0.25;;;;;;;;;;5006852;28;20638;-57
2021/12/01 10:29:18;;;;;;;0.20;0.20;;;;;;;;;;5005207;28;20057;-56
2021/12/01 10:31:52;;;;;;;0.63;0.38;;;;;;;;;;5006116;28;20057;-56
2021/12/01 10:34:18;;;;;;;0.98;0.40;;;;;;;;;;5007710;28;20071;-55
2021/12/01 10:36:48;;;;;;;0.82;0.40;;;;;;;;;;5007579;28;20511;-57
2021/12/01 10:39:14;;;;;;;0.60;0.35;;;;;;;;;;5007479;28;20098;-51
2021/12/01 10:41:41;;;;;;;0.52;0.30;;;;;;;;;;5004775;28;20038;-55
2021/12/01 10:44:08;;;;;;;0.30;0.30;;;;;;;;;;5008346;28;20050;-56
2021/12/01 10:46:42;;;;;;;0.52;0.30;;;;;;;;;;5006709;28;20048;-53
2021/12/01 10:49:08;;;;;;;0.65;0.30;;;;;;;;;;5007293;28;20120;-54
2021/12/01 10:51:35;;;;;;;0.30;0.30;;;;;;;;;;5007443;28;20203;-54
2021/12/01 10:54:02;;;;;;;4.55;0.40;;;;;;;;;;5008562;28;20034;-57
2021/12/01 10:56:28;;;;;;;0.30;0.30;;;;;;;;;;5009118;28;20576;-55
2021/12/01 10:58:54;;;;;;;0.47;0.30;;;;;;;;;;5011321;28;20045;-55
2021/12/01 11:01:21;;;;;;;0.30;0.30;;;;;;;;;;5011230;28;20104;-56
2021/12/01 11:03:48;;;;;;;0.98;0.40;;;;;;;;;;5011931;28;20037;-56
2021/12/01 11:06:19;;;;;;;1.98;0.38;;;;;;;;;;5011008;28;20073;-55
2021/12/01 11:08:46;;;;;;;0.30;0.30;;;;;;;;;;5009885;28;20025;-57
2021/12/01 11:11:17;;;;;;;0.30;0.30;;;;;;;;;;5010946;28;20112;-54
2021/12/01 11:13:44;;;;;;;0.77;0.30;;;;;;;;;;5012686;28;21804;-54
2021/12/01 11:16:11;;;;;;;0.45;0.28;;;;;;;;;;5011071;28;20046;-53
2021/12/01 11:18:38;;;;;;;0.30;0.30;;;;;;;;;;5010042;28;20038;-56
2021/12/01 11:21:11;;;;;;;1.15;0.30;;;;;;;;;;5010267;28;20465;-56
2021/12/01 11:23:37;;;;;;;;;;;;;;;;;;5010898;28;20585;-56
2021/12/01 11:26:06;;;;;;;0.32;0.30;;;;;;;;;;5012602;28;19945;-54
2021/12/01 11:28:33;;;;;;;0.25;0.25;;;;;;;;;;5010394;28;20074;-57
2021/12/01 11:31:00;;;;;;;0.80;0.30;;;;;;;;;;5008971;28;20079;-56
2021/12/01 11:33:26;;;;;;;0.52;0.30;;;;;;;;;;5013174;28;21960;-54
2021/12/01 11:35:56;;;;;;;0.43;0.30;;;;;;;;;;5012468;28;20037;-55
2021/12/01 11:38:22;;;;;;;0.30;0.30;;;;;;;;;;5010455;28;20053;-55
2021/12/01 11:40:49;;;;;;;1.08;0.40;;;;;;;;;;5010751;28;20050;-56
2021/12/01 11:43:17;;;;;;;0.40;0.30;;;;;;;;;;5012512;28;20042;-57
2021/12/01 11:45:44;;;;;;;0.55;0.35;;;;;;;;;;5008951;28;20152;-56
2021/12/01 11:48:12;;;;;;;0.30;0.30;;;;;;;;;;5008102;28;20068;-57
2021/12/01 11:50:42;;;;;;;0.35;0.30;;;;;;;;;;5006665;28;20402;-56
2021/12/01 11:53:17;;;;;;;0.30;0.30;;;;;;;;;;5007920;28;20069;-57
2021/12/01 11:55:49;;;;;;;0.35;0.30;;;;;;;;;;5011525;28;20041;-54
2021/12/01 11:58:34;;;;;;;0.30;0.30;;;;;;;;;;4992251;28;20407;-55
2021/12/01 12:00:59;;;;;;;1.25;0.40;;;;;;;;;;5010062;28;20056;-55
2021/12/01 12:03:26;;;;;;;0.38;0.32;;;;;;;;;;5010752;28;20041;-55
2021/12/01 12:06:10;;;;;;;0.52;0.35;;;;;;;;;;5012231;28;20076;-57
2021/12/01 12:08:54;;;;;;;0.20;0.20;;;;;;;;;;5010608;28;20056;-55
2021/12/01 12:11:46;;;;;;;0.25;0.25;;;;;;;;;;5011992;28;20516;-56
2021/12/01 12:14:17;;;;;;;0.30;0.30;;;;;;;;;;5006573;28;20041;-54
2021/12/01 12:17:00;;;;;;;0.30;0.30;;;;;;;;;;5008051;28;20039;-54
2021/12/01 12:19:44;;;;;;;0.55;0.30;;;;;;;;;;5006608;28;20038;-57
2021/12/01 12:22:11;;;;;;;0.30;0.30;;;;;;;;;;5008723;28;20037;-55
2021/12/01 12:24:52;;;;;;;0.30;0.30;;;;;;;;;;5006568;28;20524;-55
2021/12/01 12:27:32;;;;;;;0.28;0.28;;;;;;;;;;5007750;28;20808;-56
2021/12/01 12:29:59;;;;;;;0.20;0.20;;;;;;;;;;5007035;28;20050;-54
2021/12/01 12:32:29;;;;;;;0.30;0.30;;;;;;;;;;5006833;28;20591;-55
2021/12/01 12:34:56;;;;;;;0.30;0.30;;;;;;;;;;5009796;28;20061;-56
2021/12/01 12:37:24;;;;;;;0.30;0.30;;;;;;;;;;5008687;28;20448;-55
2021/12/01 12:39:51;;;;;;;0.30;0.30;;;;;;;;;;5008996;28;20060;-52
2021/12/01 12:42:17;;;;;;;0.28;0.20;;;;;;;;;;5010913;28;20044;-56
2021/12/01 12:44:43;;;;;;;0.47;0.30;;;;;;;;;;5009682;28;20041;-55
2021/12/01 12:47:10;;;;;;;0.30;0.30;;;;;;;;;;5007620;28;20034;-57
2021/12/01 12:49:36;;;;;;;0.20;0.20;;;;;;;;;;5009147;28;20742;-57
2021/12/01 12:52:20;;;;;;;0.30;0.30;;;;;;;;;;5009830;28;20041;-57
2021/12/01 12:54:46;;;;;;;0.30;0.30;;;;;;;;;;5007789;28;20147;-55
2021/12/01 12:57:14;;;;;;;0.30;0.30;;;;;;;;;;5009525;28;20793;-55
2021/12/01 12:59:39;;;;;;;0.47;0.30;;;;;;;;;;5008706;28;20825;-55
2021/12/01 13:02:11;;;;;;;0.55;0.30;;;;;;;;;;5010260;28;20120;-52
2021/12/01 13:07:31;;;;;;;0.30;0.30;;;;;;;;;;5010928;28;20487;-55
2021/12/01 13:10:14;;;;;;;0.30;0.30;;;;;;;;;;5008105;28;20450;-56
2021/12/01 13:12:44;;;;;;;0.30;0.30;;;;;;;;;;5008042;28;20159;-56
2021/12/01 13:15:24;;;;;;;0.20;0.20;;;;;;;;;;5009731;28;20049;-54
2021/12/01 13:17:51;;;;;;;0.30;0.30;;;;;;;;;;5008997;28;20050;-55
2021/12/01 13:20:18;;;;;;;4.40;0.40;;;;;;;;;;5009500;28;20046;-57
2021/12/01 13:22:58;;;;;;;1.35;0.60;;;;;;;;;;5009254;28;20050;-56
2021/12/01 13:25:25;;;;;;;0.93;0.30;;;;;;;;;;5009200;28;20046;-56
2021/12/01 13:27:50;;;;;;;0.30;0.30;;;;;;;;;;5008242;28;20156;-55
2021/12/01 13:30:16;;;;;;;0.77;0.40;;;;;;;;;;5008004;28;20034;-56
2021/12/01 13:32:42;;;;;;;0.30;0.30;;;;;;;;;;5008509;28;20069;-55
2021/12/01 13:35:08;;;;;;;0.43;0.40;;;;;;;;;;5010413;28;20045;-59
2021/12/01 13:37:34;;;;;;;0.30;0.30;;;;;;;;;;5005840;28;20097;-56
2021/12/01 13:40:07;;;;;;;1.15;0.38;;;;;;;;;;5008886;28;20042;-55
2021/12/01 13:42:33;;;;;;;0.93;0.43;;;;;;;;;;5009808;28;20774;-53
2021/12/01 13:44:58;;;;;;;0.35;0.30;;;;;;;;;;5009179;28;20042;-55
2021/12/01 13:47:39;;;;;;;0.35;0.35;;;;;;;;;;5006132;28;20573;-54
2021/12/01 13:50:07;;;;;;;1.23;0.40;;;;;;;;;;5008039;28;20053;-53
2021/12/01 13:52:34;;;;;;;0.65;0.30;;;;;;;;;;5008736;28;20119;-54
2021/12/01 13:55:20;;;;;;;0.98;0.40;;;;;;;;;;5008558;28;20099;-54
2021/12/01 13:57:48;;;;;;;1.55;0.40;;;;;;;;;;5007828;28;20045;-57
2021/12/01 14:00:14;;;;;;;5.32;0.60;;;;;;;;;;5008292;28;20121;-57
2021/12/01 14:02:42;;;;;;;1.65;0.50;;;;;;;;;;5006943;28;20049;-57
2021/12/01 14:05:08;;;;;;;1.05;0.40;;;;;;;;;;5008476;28;20041;-54
2021/12/01 14:07:37;;;;;;;0.80;0.47;;;;;;;;;;5006568;28;20691;-55
2021/12/01 14:10:05;;;;;;;1.55;0.40;;;;;;;;;;5007535;28;20722;-56
2021/12/01 14:12:32;;;;;;;1.88;0.50;;;;;;;;;;5009876;28;20054;-56
2021/12/01 14:14:59;;;;;;;1.42;0.52;;;;;;;;;;5008514;28;20495;-53
2021/12/01 14:17:25;;;;;;;3.47;0.63;;;;;;;;;;5005282;28;20058;-55
2021/12/01 14:19:54;;;;;;;1.77;0.55;;;;;;;;;;5008959;28;20068;-52
2021/12/01 14:22:20;;;;;;;2.95;0.63;;;;;;;;;;5007580;28;20503;-55
2021/12/01 14:24:53;;;;;;;1.65;0.50;;;;;;;;;;5009299;28;20026;-53
2021/12/01 14:27:23;;;;;;;1.52;0.47;;;;;;;;;;5006759;28;21045;-56
2021/12/01 14:29:49;;;;;;;2.35;0.60;;;;;;;;;;5006854;28;20064;-55
2021/12/01 14:32:16;;;;;;;1.30;0.50;;;;;;;;;;5011865;28;20608;-57
2021/12/01 14:34:42;;;;;;;0.90;0.47;;;;;;;;;;5011155;28;20124;-55
2021/12/01 14:37:09;;;;;;;3.55;0.60;;;;;;;;;;4995357;28;22456;-55
2021/12/01 14:39:36;;;;;;;2.85;0.65;;;;;;;;;;5011134;28;20763;-55
2021/12/01 14:42:02;;;;;;;1.38;0.50;;;;;;;;;;5011135;28;20034;-57
2021/12/01 14:44:31;;;;;;;1.67;0.52;;;;;;;;;;5009345;28;20037;-51
2021/12/01 14:47:01;;;;;;;0.80;0.40;;;;;;;;;;5011000;28;20207;-51
2021/12/01 14:49:45;;;;;;;7.10;0.70;;;;;;;;;;5009495;28;20034;-52
2021/12/01 14:52:26;;;;;;;3.92;0.60;;;;;;;;;;5012418;28;20077;-54
2021/12/01 14:55:17;;;;;;;1.92;0.60;;;;;;;;;;5010721;28;20046;-57